Aviation Digital Data Service (ADDS)

Output produced by TAFs form (0942 UTC 12 February 2016)
found at http://www.aviationweather.gov/adds/tafs/
 
KSBY 120520Z 1206/1306 31006KT P6SM BKN250 
     FM121500 VRB03KT P6SM BKN100 
     FM122200 18006KT 2SM -SN BR OVC025 
     FM130200 21003KT P6SM OVC030